This is the latest recevied weather packets stored in our database for station/object LX0WX-13. If no packets are shown the sender has not sent any weather packets the latest 1 day(s).
| Time | Temp. | Humidity | Pressure | Rain* | Wind** | Luminosity | Snow |
|---|---|---|---|---|---|---|---|
| 1778104248 | 5.56° C | 92% | 1006 hPa | 0 mm | - | - | - |
| 1778101548 | 5.56° C | 91% | 1005.4 hPa | 0 mm | - | - | - |
| 1778090749 | 7.22° C | 85% | 1003.9 hPa | 0 mm | - | - | - |
| 1778090449 | 7.22° C | 85% | 1004.1 hPa | 0 mm | - | - | - |
| 1778089849 | 7.22° C | 85% | 1003.9 hPa | 0 mm | - | - | - |
| 1778089549 | 7.22° C | 85% | 1003.9 hPa | 0 mm | - | - | - |
| 1778089249 | 7.22° C | 85% | 1003.8 hPa | 0 mm | - | - | - |
| 1778088949 | 7.78° C | 85% | 1003.9 hPa | 0 mm | - | - | - |
| 1778088649 | 7.78° C | 84% | 1003.8 hPa | 0 mm | - | - | - |
| 1778088349 | 7.78° C | 84% | 1003.8 hPa | 0 mm | - | - | - |
| 1778088049 | 7.78° C | 84% | 1004 hPa | 0 mm | - | - | - |
| 1778087749 | 7.78° C | 84% | 1003.9 hPa | 0 mm | - | - | - |
| 1778087449 | 7.78° C | 84% | 1003.9 hPa | 0 mm | - | - | - |
| 1778087149 | 8.33° C | 84% | 1003.9 hPa | 0 mm | - | - | - |
| 1778086849 | 8.33° C | 82% | 1003.9 hPa | 0 mm | - | - | - |
| 1778086549 | 8.33° C | 82% | 1003.9 hPa | 0 mm | - | - | - |
| 1778086249 | 8.33° C | 81% | 1003.8 hPa | 0 mm | - | - | - |
| 1778085949 | 8.33° C | 80% | 1003.7 hPa | 0 mm | - | - | - |
| 1778085649 | 8.33° C | 80% | 1003.8 hPa | 0 mm | - | - | - |
| 1778085349 | 8.89° C | 80% | 1003.7 hPa | 0 mm | - | - | - |
| 1778085049 | 8.89° C | 81% | 1003.6 hPa | 0 mm | - | - | - |
| 1778084749 | 8.89° C | 80% | 1003.7 hPa | 0 mm | - | - | - |
| 1778084449 | 8.89° C | 81% | 1003.6 hPa | 0 mm | - | - | - |
| 1778084149 | 9.44° C | 80% | 1003.7 hPa | 0 mm | - | - | - |
| 1778083849 | 8.89° C | 81% | 1003.7 hPa | 0 mm | - | - | - |
* Rain latest hour (hover to see other rain measurements)
** Current wind speed in m/s (hover to see current wind gust speed)